Time;durP1;ratioP1;P1;durP2;ratioP2;P2;SDS_P1;SDS_P2;PMS_P1;PMS_P2;Temp;Humidity;BMP_temperature;BMP_pressure;BME280_temperature;BME280_humidity;BME280_pressure;Samples;Min_cycle;Max_cycle;Signal;HPM_P1;HPM_P2
2023/10/18 00:00:34;;;;;;;1.80;1.80;;;;;;;7.29;85.81;95165.31;4344299;32;20212;-61
2023/10/18 00:03:01;;;;;;;1.93;1.83;;;;;;;7.39;85.34;95159.97;4341106;32;20228;-61
2023/10/18 00:05:28;;;;;;;3.33;3.13;;;;;;;7.31;85.90;95152.66;4363831;32;20184;-61
2023/10/18 00:07:57;;;;;;;2.03;1.93;;;;;;;7.34;86.16;95149.47;4363683;32;20303;-61
2023/10/18 00:10:22;;;;;;;2.67;2.57;;;;;;;7.18;86.09;95155.94;4345801;32;20285;-61
2023/10/18 00:12:48;;;;;;;2.63;2.53;;;;;;;7.38;85.57;95147.84;4348181;32;20364;-62
2023/10/18 00:15:14;;;;;;;2.90;2.50;;;;;;;7.16;86.32;95150.12;4338951;32;20240;-61
2023/10/18 00:17:40;;;;;;;2.73;2.53;;;;;;;7.34;85.95;95143.41;4349084;32;20203;-61
2023/10/18 00:20:13;;;;;;;3.60;3.33;;;;;;;7.31;86.10;95142.09;4362278;32;20289;-61
2023/10/18 00:22:39;;;;;;;2.73;2.63;;;;;;;7.32;85.88;95140.25;4362128;32;20189;-61
2023/10/18 00:25:06;;;;;;;3.93;2.43;;;;;;;7.52;85.17;95142.69;4348221;32;20281;-61
2023/10/18 00:27:31;;;;;;;2.37;2.27;;;;;;;7.41;85.40;95141.22;4348416;32;20348;-61
2023/10/18 00:29:58;;;;;;;3.13;2.90;;;;;;;7.40;85.44;95134.38;4346877;32;20349;-61
2023/10/18 00:32:23;;;;;;;3.37;3.13;;;;;;;7.42;85.47;95129.63;4349103;32;20201;-61
2023/10/18 00:34:49;;;;;;;3.13;2.93;;;;;;;7.35;85.89;95129.94;4362269;32;20326;-61
2023/10/18 00:37:16;;;;;;;3.13;2.93;;;;;;;7.45;85.42;95124.56;4348915;32;20205;-61
2023/10/18 00:39:42;;;;;;;2.77;2.50;;;;;;;7.47;85.32;95125.09;4348402;32;20181;-61
2023/10/18 00:42:25;;;;;;;3.37;3.07;;;;;;;7.27;86.36;95114.72;4348453;32;20326;-61
2023/10/18 00:44:55;;;;;;;3.00;2.87;;;;;;;7.28;85.84;95118.09;4340853;32;20181;-61
2023/10/18 00:47:23;;;;;;;3.50;3.30;;;;;;;7.52;84.97;95113.66;4359966;32;20277;-61
2023/10/18 00:49:52;;;;;;;2.40;2.30;;;;;;;7.38;85.71;95120.69;4354991;32;20375;-61
2023/10/18 00:52:21;;;;;;;3.10;2.90;;;;;;;7.55;84.99;95123.69;4348167;32;22788;-61
2023/10/18 00:54:48;;;;;;;3.40;3.20;;;;;;;7.32;85.39;95122.56;4348010;32;20297;-61
2023/10/18 00:57:20;;;;;;;3.17;2.13;;;;;;;7.31;85.65;95123.63;4348367;32;20293;-61
2023/10/18 00:59:45;;;;;;;2.70;2.60;;;;;;;7.51;84.85;95112.88;4348369;32;20339;-61
2023/10/18 01:02:13;;;;;;;2.43;2.33;;;;;;;7.50;84.58;95113.94;4334959;32;20290;-61
2023/10/18 01:04:40;;;;;;;3.00;2.83;;;;;;;7.19;85.79;95115.31;4348645;32;20205;-61
2023/10/18 01:07:14;;;;;;;2.40;2.27;;;;;;;7.17;85.76;95107.66;4347611;32;20289;-61
2023/10/18 01:09:47;;;;;;;2.73;2.53;;;;;;;7.28;85.31;95108.34;4348184;32;20277;-61
2023/10/18 01:12:14;;;;;;;2.93;2.73;;;;;;;7.33;85.15;95097.75;4334261;32;20373;-61
2023/10/18 01:14:40;;;;;;;2.57;2.47;;;;;;;7.27;85.37;95096.25;4355182;32;20289;-61
2023/10/18 01:17:06;;;;;;;2.70;2.57;;;;;;;7.22;85.41;95097.06;4349539;32;20297;-62
2023/10/18 01:19:32;;;;;;;2.17;2.07;;;;;;;7.23;85.08;95098.66;4339603;32;20192;-61
2023/10/18 01:21:58;;;;;;;3.70;3.47;;;;;;;7.03;85.61;95092.75;4349674;32;20289;-62
2023/10/18 01:24:28;;;;;;;1.80;1.77;;;;;;;6.92;86.29;95094.66;4361059;32;20219;-61
2023/10/18 01:26:53;;;;;;;4.13;3.83;;;;;;;6.72;87.32;95090.34;4347783;32;20231;-61
2023/10/18 01:29:18;;;;;;;3.47;2.63;;;;;;;6.76;87.16;95086.09;4356410;32;20282;-61
2023/10/18 01:31:45;;;;;;;3.87;3.57;;;;;;;6.97;87.28;95084.09;4341107;32;20203;-61
2023/10/18 01:34:11;;;;;;;3.13;2.93;;;;;;;6.93;87.37;95084.91;4344672;32;20193;-61
2023/10/18 01:36:39;;;;;;;2.47;2.37;;;;;;;6.95;87.12;95078.31;4340662;32;20297;-61
2023/10/18 01:39:29;;;;;;;3.20;3.10;;;;;;;7.08;86.90;95084.78;4343138;32;20293;-61
2023/10/18 01:41:54;;;;;;;3.50;3.20;;;;;;;7.05;86.95;95072.16;4347613;32;20335;-61
2023/10/18 01:44:35;;;;;;;3.07;2.87;;;;;;;6.95;87.46;95067.75;4345171;32;20283;-61
2023/10/18 01:47:08;;;;;;;6.23;4.53;;;;;;;7.07;87.24;95070.81;4339573;32;20258;-61
2023/10/18 01:49:50;;;;;;;3.67;3.37;;;;;;;6.99;87.85;95065.34;4354862;32;20278;-61
2023/10/18 01:52:19;;;;;;;3.03;2.90;;;;;;;6.88;88.33;95068.06;4336300;32;20331;-61
2023/10/18 01:54:45;;;;;;;2.97;2.77;;;;;;;6.94;88.92;95066.19;4343291;32;20219;-61
2023/10/18 01:57:12;;;;;;;2.93;2.83;;;;;;;6.83;89.56;95057.56;4345185;32;20308;-61
2023/10/18 01:59:39;;;;;;;4.43;4.20;;;;;;;6.68;90.39;95056.88;4347542;32;20307;-59
2023/10/18 02:02:10;;;;;;;3.37;3.17;;;;;;;6.63;91.93;95065.62;4361208;32;20303;-59
2023/10/18 02:04:40;;;;;;;3.97;3.67;;;;;;;6.78;91.43;95054.97;4352464;32;20281;-59
2023/10/18 02:07:07;;;;;;;3.13;2.93;;;;;;;6.68;92.09;95052.41;4359604;32;20293;-58
2023/10/18 02:09:36;;;;;;;3.57;3.37;;;;;;;6.88;91.50;95048.81;4347270;32;20312;-58
2023/10/18 02:12:08;;;;;;;4.13;3.93;;;;;;;6.94;91.53;95041.66;4359544;32;20301;-59
2023/10/18 02:14:34;;;;;;;3.37;3.03;;;;;;;7.04;91.01;95033.69;4349802;32;20296;-58
2023/10/18 02:17:00;;;;;;;5.13;4.80;;;;;;;6.97;91.19;95038.47;4337807;32;20377;-59
2023/10/18 02:19:27;;;;;;;4.47;4.23;;;;;;;6.92;91.78;95044.56;4355771;32;20193;-58
2023/10/18 02:21:54;;;;;;;3.03;2.83;;;;;;;7.01;91.92;95034.22;4344988;32;20281;-58
2023/10/18 02:24:19;;;;;;;3.57;3.37;;;;;;;6.99;91.91;95028.44;4357440;32;20281;-59
2023/10/18 02:26:53;;;;;;;3.47;2.50;;;;;;;6.96;92.00;95026.34;4336026;32;20296;-59
2023/10/18 02:29:19;;;;;;;3.37;3.17;;;;;;;6.79;92.71;95038.09;4345041;32;20276;-59
2023/10/18 02:31:45;;;;;;;4.10;3.80;;;;;;;6.70;93.37;95037.09;4344556;32;20350;-59
2023/10/18 02:34:14;;;;;;;4.00;3.73;;;;;;;6.55;93.85;95034.59;4358962;32;20259;-58
2023/10/18 02:36:39;;;;;;;4.80;4.10;;;;;;;6.59;94.04;95022.44;4344104;32;20215;-59
2023/10/18 02:39:09;;;;;;;3.73;3.43;;;;;;;6.65;93.96;95025.84;4359171;32;20305;-58
2023/10/18 02:41:37;;;;;;;4.27;3.97;;;;;;;6.71;93.54;95022.84;4358660;32;20197;-59
2023/10/18 02:44:08;;;;;;;3.23;3.03;;;;;;;6.90;92.32;95023.75;4359232;32;20285;-59
2023/10/18 02:46:33;;;;;;;5.23;4.80;;;;;;;6.74;92.92;95017.03;4345661;32;20300;-58
2023/10/18 02:49:00;;;;;;;3.63;3.40;;;;;;;6.49;93.13;95010.13;4351495;32;20289;-59
2023/10/18 02:51:28;;;;;;;4.07;3.83;;;;;;;6.61;93.22;95009.00;4352352;32;20193;-58
2023/10/18 02:54:00;;;;;;;3.70;3.50;;;;;;;6.66;92.80;95009.72;4346612;32;20289;-59
2023/10/18 02:56:32;;;;;;;5.60;5.10;;;;;;;6.53;92.48;95005.88;4361145;32;20285;-59
2023/10/18 02:58:58;;;;;;;3.63;3.33;;;;;;;6.63;91.75;94993.69;4336875;32;20325;-58
2023/10/18 03:01:25;;;;;;;3.97;3.67;;;;;;;6.81;91.30;94999.06;4347760;32;20289;-58
2023/10/18 03:03:55;;;;;;;3.60;3.40;;;;;;;6.74;91.16;94998.59;4360372;32;20209;-59
2023/10/18 03:06:24;;;;;;;4.13;3.90;;;;;;;6.82;90.33;94986.66;4339777;32;20281;-59
2023/10/18 03:08:50;;;;;;;4.60;4.30;;;;;;;6.79;90.31;94990.66;4333725;32;20282;-58
2023/10/18 03:11:20;;;;;;;2.47;2.37;;;;;;;6.80;90.16;94986.94;4346693;32;20331;-59
2023/10/18 03:13:46;;;;;;;5.00;4.57;;;;;;;6.73;89.94;94983.06;4360137;32;20217;-58
2023/10/18 03:18:43;;;;;;;3.47;3.27;;;;;;;6.43;90.90;94963.81;4360289;32;20200;-59
2023/10/18 03:21:09;;;;;;;3.00;2.90;;;;;;;6.64;90.07;94967.06;4336212;32;20299;-59
2023/10/18 03:23:44;;;;;;;2.13;2.03;;;;;;;6.71;89.86;94970.16;4359799;32;20320;-59
2023/10/18 03:26:12;;;;;;;4.67;4.37;;;;;;;6.73;89.44;94973.28;4345147;32;20193;-58
2023/10/18 03:28:41;;;;;;;2.57;2.47;;;;;;;6.87;89.01;94968.94;4352690;32;20328;-58
2023/10/18 03:31:27;;;;;;;2.97;2.83;;;;;;;6.82;89.15;94973.50;4336862;32;20315;-58
2023/10/18 03:33:55;;;;;;;2.70;2.60;;;;;;;6.62;89.58;94969.19;4362232;32;20308;-58
2023/10/18 03:36:21;;;;;;;2.83;2.53;;;;;;;6.71;89.46;94967.50;4338765;32;20293;-58
2023/10/18 03:39:00;;;;;;;3.57;3.40;;;;;;;6.78;89.40;94965.34;4355705;32;20309;-59
2023/10/18 03:41:33;;;;;;;3.67;3.47;;;;;;;6.55;90.09;94971.34;4361623;32;20192;-59
2023/10/18 03:44:08;;;;;;;3.57;3.37;;;;;;;6.67;90.07;94970.97;4349612;32;20289;-58
2023/10/18 03:49:16;;;;;;;1.73;1.73;;;;;;;6.49;91.02;94954.78;4357085;32;20316;-58
2023/10/18 03:51:46;;;;;;;3.00;2.90;;;;;;;6.76;90.06;94959.56;4349144;32;20336;-58
2023/10/18 03:54:14;;;;;;;3.67;3.47;;;;;;;6.76;90.27;94956.94;4348646;32;20312;-59
2023/10/18 03:56:42;;;;;;;3.27;3.07;;;;;;;6.68;90.68;94951.47;4362652;32;20298;-58
2023/10/18 03:59:20;;;;;;;3.10;2.93;;;;;;;6.56;90.62;94954.47;4362833;32;20284;-58
2023/10/18 04:02:15;;;;;;;4.00;2.83;;;;;;;6.59;90.89;94951.28;4356081;32;20286;-58
2023/10/18 04:04:44;;;;;;;3.40;3.20;;;;;;;6.65;90.43;94954.69;4342797;32;20364;-58
2023/10/18 04:07:14;;;;;;;3.63;3.53;;;;;;;6.75;90.04;94959.84;4343780;32;20289;-58
2023/10/18 04:09:46;;;;;;;3.47;3.37;;;;;;;6.72;89.65;94950.63;4341992;32;20293;-58
2023/10/18 04:12:13;;;;;;;3.23;3.03;;;;;;;6.33;91.49;94947.28;4347601;32;20397;-59
2023/10/18 04:14:40;;;;;;;2.80;2.70;;;;;;;6.14;92.55;94953.22;4361022;32;20312;-58
2023/10/18 04:17:09;;;;;;;3.60;3.30;;;;;;;6.46;91.53;94946.63;4347183;32;20371;-59
2023/10/18 04:19:36;;;;;;;3.73;3.43;;;;;;;6.55;90.54;94942.34;4347530;32;20306;-58
2023/10/18 04:22:05;;;;;;;3.77;3.33;;;;;;;6.54;90.45;94941.56;4360200;32;20316;-58
2023/10/18 04:24:30;;;;;;;3.27;3.07;;;;;;;6.49;90.35;94933.69;4348275;32;20185;-59
2023/10/18 04:26:56;;;;;;;2.80;2.60;;;;;;;6.25;90.93;94929.41;4350615;32;20297;-58
2023/10/18 04:29:26;;;;;;;3.77;3.57;;;;;;;6.42;90.25;94927.19;4362124;32;20190;-59
2023/10/18 04:31:52;;;;;;;4.10;3.80;;;;;;;6.35;90.52;94937.25;4349018;32;20388;-58
2023/10/18 04:34:20;;;;;;;4.10;3.73;;;;;;;6.46;90.00;94928.19;4352112;32;20304;-59
2023/10/18 04:36:46;;;;;;;2.47;2.33;;;;;;;6.23;90.38;94934.22;4348769;32;20277;-59
2023/10/18 04:39:11;;;;;;;4.13;2.83;;;;;;;6.57;89.67;94927.06;4348116;32;20420;-59
2023/10/18 04:41:38;;;;;;;4.13;3.93;;;;;;;6.47;89.78;94929.78;4361220;32;20254;-59
2023/10/18 04:44:07;;;;;;;4.00;3.80;;;;;;;6.57;89.62;94928.91;4347135;32;20189;-59
2023/10/18 04:46:36;;;;;;;2.77;2.67;;;;;;;6.43;89.85;94924.28;4339786;32;20307;-59
2023/10/18 04:51:43;;;;;;;10.47;3.97;;;;;;;6.24;90.41;94914.69;4361757;32;20288;-58
2023/10/18 04:57:22;;;;;;;2.90;2.70;;;;;;;6.20;91.88;94920.53;4360287;32;20349;-58
2023/10/18 04:59:45;;;;;;;3.27;3.07;;;;;;;6.34;91.27;94914.63;4331637;32;20299;-58
2023/10/18 05:02:16;;;;;;;3.43;3.33;;;;;;;6.41;90.94;94913.25;4346555;32;20330;-59
2023/10/18 05:04:43;;;;;;;4.43;4.03;;;;;;;6.49;91.04;94911.84;4361057;32;20299;-59
2023/10/18 05:07:14;;;;;;;3.50;3.27;;;;;;;6.48;90.60;94912.91;4345587;32;20396;-59
2023/10/18 05:19:56;;;;;;;3.60;3.43;;;;;;;6.64;90.09;94895.91;4361701;32;20289;-58
2023/10/18 05:22:25;;;;;;;2.53;2.37;;;;;;;6.28;91.59;94879.63;4344428;32;20285;-59
2023/10/18 05:27:45;;;;;;;4.50;4.30;;;;;;;6.49;91.06;94890.75;4361315;32;20277;-59
2023/10/18 05:30:26;;;;;;;3.87;3.67;;;;;;;6.54;91.09;94898.62;4341187;32;20289;-59
2023/10/18 05:33:03;;;;;;;5.40;4.40;;;;;;;6.73;90.47;94896.84;4359601;32;20285;-59
2023/10/18 05:35:30;;;;;;;2.70;2.50;;;;;;;6.57;91.01;94902.56;4348486;32;20320;-58
2023/10/18 05:37:59;;;;;;;3.67;3.47;;;;;;;6.62;90.52;94903.31;4345053;32;20356;-59
2023/10/18 05:43:13;;;;;;;3.27;2.80;;;;;;;6.49;90.81;94912.63;4357817;32;20360;-58
2023/10/18 05:45:42;;;;;;;2.97;2.77;;;;;;;6.57;90.37;94905.97;4344316;32;20323;-58
2023/10/18 05:48:13;;;;;;;3.57;3.27;;;;;;;6.56;90.63;94912.31;4356314;32;20282;-58
2023/10/18 05:50:39;;;;;;;4.37;4.03;;;;;;;6.47;91.14;94911.31;4348161;32;20296;-59
2023/10/18 05:53:11;;;;;;;3.37;3.17;;;;;;;6.63;90.55;94904.88;4360455;32;20300;-59
2023/10/18 05:55:38;;;;;;;3.20;2.90;;;;;;;6.69;90.42;94906.38;4361388;32;20289;-59
2023/10/18 05:58:06;;;;;;;3.07;2.93;;;;;;;6.63;90.43;94906.72;4347437;32;20394;-59
2023/10/18 06:00:33;;;;;;;3.50;3.27;;;;;;;6.43;91.15;94903.22;4347111;32;20340;-59
2023/10/18 06:02:59;;;;;;;3.13;2.93;;;;;;;6.38;91.41;94900.63;4348813;32;20281;-59
2023/10/18 06:05:27;;;;;;;3.30;3.10;;;;;;;6.34;92.24;94898.81;4335003;32;20304;-59
2023/10/18 06:07:53;;;;;;;4.07;2.77;;;;;;;6.50;91.82;94901.03;4338829;32;20357;-59
2023/10/18 06:10:18;;;;;;;3.63;3.33;;;;;;;6.54;91.46;94909.94;4346256;32;20383;-58
2023/10/18 06:12:55;;;;;;;2.70;2.60;;;;;;;6.68;91.00;94904.81;4339824;32;20180;-59
2023/10/18 06:15:34;;;;;;;3.20;2.97;;;;;;;6.40;91.50;94913.50;4339068;32;20227;-59
2023/10/18 06:18:00;;;;;;;2.37;2.27;;;;;;;6.45;91.97;94914.25;4352386;32;20293;-58
2023/10/18 06:20:28;;;;;;;1.83;1.67;;;;;;;6.59;90.92;94911.75;4346738;32;20272;-60
2023/10/18 06:23:36;;;;;;;1.60;1.53;;;;;;;9.56;100.00;94893.53;4359640;32;20277;-57
2023/10/18 06:25:57;;;;;;;1.93;1.93;;;;;;;10.67;100.00;94892.88;4356771;32;20277;-57
2023/10/18 06:28:24;;;;;;;2.30;2.20;;;;;;;11.73;94.10;94874.31;4354988;32;20376;-57
2023/10/18 06:30:51;;;;;;;2.53;2.43;;;;;;;12.05;81.80;94881.88;4349418;32;20293;-57
2023/10/18 06:33:19;;;;;;;2.60;2.50;;;;;;;12.31;74.45;94893.28;4343045;32;20220;-58
2023/10/18 06:35:52;;;;;;;3.40;3.20;;;;;;;12.80;72.43;94896.50;4340001;32;20204;-57
2023/10/18 06:38:24;;;;;;;2.13;2.00;;;;;;;13.12;70.98;94891.69;4330854;32;20204;-57
2023/10/18 06:40:53;;;;;;;1.73;1.63;;;;;;;13.22;68.87;94892.16;4345759;32;20283;-57
2023/10/18 06:43:20;;;;;;;2.47;2.37;;;;;;;13.03;67.39;94897.06;4332543;33;20197;-58
2023/10/18 06:45:50;;;;;;;2.00;1.90;;;;;;;13.22;66.73;94902.03;4331658;32;20223;-58
2023/10/18 06:48:16;;;;;;;1.47;1.47;;;;;;;13.29;64.84;94896.97;4330528;32;20193;-57
2023/10/18 06:50:46;;;;;;;2.40;2.30;;;;;;;13.54;64.98;94893.38;4331769;32;20246;-57
2023/10/18 06:53:13;;;;;;;14.83;2.23;;;;;;;13.66;64.43;94890.03;4328196;33;20189;-58
2023/10/18 06:58:15;;;;;;;3.23;3.03;;;;;;;13.71;71.25;94884.53;4345754;32;20197;-59
2023/10/18 07:00:46;;;;;;;2.13;1.97;;;;;;;13.13;67.35;94879.91;4333011;32;20235;-59
2023/10/18 07:03:16;;;;;;;2.60;2.50;;;;;;;11.42;66.23;94895.69;4334691;32;20190;-58
2023/10/18 07:05:46;;;;;;;2.80;2.60;;;;;;;10.50;70.74;94898.06;4348618;32;20232;-60
2023/10/18 07:08:19;;;;;;;2.37;2.27;;;;;;;9.47;75.04;94897.19;4348667;32;20225;-60
2023/10/18 07:10:55;;;;;;;4.20;2.60;;;;;;;9.47;75.68;94897.19;4351941;32;20216;-62
2023/10/18 07:13:42;;;;;;;2.03;1.93;;;;;;;8.92;78.24;94898.00;4336027;32;20189;-61
2023/10/18 07:16:18;;;;;;;1.90;1.80;;;;;;;8.57;79.96;94896.75;4348558;32;20196;-60
2023/10/18 07:18:53;;;;;;;1.87;1.80;;;;;;;7.92;82.77;94891.41;4334902;32;20190;-61
2023/10/18 07:21:19;;;;;;;2.97;2.87;;;;;;;8.18;82.48;94891.81;4335350;32;20291;-62
2023/10/18 07:23:53;;;;;;;2.57;2.47;;;;;;;8.31;82.17;94886.87;4347739;32;20185;-61
2023/10/18 07:26:21;;;;;;;3.37;3.17;;;;;;;8.15;82.86;94887.09;4348069;32;20207;-61
2023/10/18 07:28:47;;;;;;;2.20;2.10;;;;;;;8.16;83.06;94879.97;4334188;32;20281;-61
2023/10/18 07:31:17;;;;;;;2.20;2.10;;;;;;;8.30;82.76;94883.47;4348079;32;20304;-62
2023/10/18 07:33:46;;;;;;;1.43;1.43;;;;;;;8.36;82.17;94877.03;4341221;32;20293;-60
2023/10/18 07:36:12;;;;;;;1.80;1.73;;;;;;;8.48;81.66;94877.38;4359812;32;20398;-60
2023/10/18 07:38:47;;;;;;;4.57;1.83;;;;;;;8.57;81.40;94874.81;4349456;32;20414;-59
2023/10/18 07:41:14;;;;;;;0.80;0.80;;;;;;;8.64;89.07;94877.88;4361376;32;20384;-56
2023/10/18 07:43:44;;;;;;;1.07;1.07;;;;;;;11.20;91.17;94867.34;4341012;32;20285;-57
2023/10/18 07:46:16;;;;;;;1.83;1.77;;;;;;;12.42;82.91;94869.81;4352148;32;20239;-57
2023/10/18 07:48:47;;;;;;;3.30;2.07;;;;;;;13.44;76.66;94866.34;4353817;32;20193;-57
2023/10/18 07:51:25;;;;;;;3.13;1.60;;;;;;;14.36;70.34;94853.72;4348589;32;20302;-61
2023/10/18 07:53:55;;;;;;;1.77;1.67;;;;;;;15.15;67.37;94849.16;4353960;32;20188;-62
2023/10/18 07:56:27;;;;;;;5.27;2.33;;;;;;;15.36;61.80;94841.81;4351443;32;20193;-61
2023/10/18 07:58:54;;;;;;;1.83;1.73;;;;;;;13.77;60.30;94846.69;4357111;32;20211;-62
2023/10/18 08:01:46;;;;;;;2.07;1.93;;;;;;;12.27;64.28;94849.78;4343990;32;20275;-61
2023/10/18 08:04:14;;;;;;;2.03;2.03;;;;;;;11.36;67.44;94850.66;4355168;32;20220;-62
2023/10/18 08:06:39;;;;;;;2.57;2.40;;;;;;;10.51;71.84;94859.06;4359444;32;20203;-61
2023/10/18 08:09:05;;;;;;;3.70;3.40;;;;;;;10.29;73.44;94849.28;4346213;32;20228;-62
2023/10/18 08:11:33;;;;;;;1.63;1.53;;;;;;;9.72;75.83;94840.25;4357552;32;20201;-61
2023/10/18 08:13:59;;;;;;;2.30;2.20;;;;;;;9.86;75.81;94860.31;4338302;32;20196;-63
2023/10/18 08:16:27;;;;;;;2.13;2.03;;;;;;;9.80;76.19;94858.06;4350618;32;20189;-63
2023/10/18 08:18:53;;;;;;;6.87;3.27;;;;;;;9.35;78.07;94862.50;4348308;32;20197;-63
2023/10/18 08:23:57;;;;;;;2.07;1.97;;;;;;;9.16;79.64;94859.97;4357533;32;20185;-63
2023/10/18 08:26:29;;;;;;;2.13;1.93;;;;;;;9.14;79.90;94852.34;4351027;32;20185;-63
2023/10/18 08:28:54;;;;;;;2.20;2.10;;;;;;;9.45;78.67;94849.84;4347206;32;20208;-63
2023/10/18 08:31:27;;;;;;;2.20;2.10;;;;;;;9.18;79.49;94840.06;4357904;32;20227;-63
2023/10/18 08:33:56;;;;;;;3.10;2.80;;;;;;;9.31;79.73;94851.72;4348382;32;20205;-63
2023/10/18 08:36:29;;;;;;;2.10;2.00;;;;;;;9.16;80.07;94859.97;4362167;32;20194;-63
2023/10/18 08:39:03;;;;;;;2.20;2.10;;;;;;;9.16;80.50;94852.03;4349316;32;20193;-63
2023/10/18 08:41:33;;;;;;;2.20;2.10;;;;;;;9.13;80.28;94848.13;4348735;32;20233;-63
2023/10/18 08:44:38;;;;;;;2.47;2.37;;;;;;;9.23;80.31;94841.81;4362254;32;20213;-63
2023/10/18 08:47:04;;;;;;;2.13;2.03;;;;;;;9.12;80.71;94840.47;4355238;32;20190;-64
2023/10/18 08:49:43;;;;;;;2.00;1.90;;;;;;;8.73;81.60;94847.03;4356589;32;20192;-63
2023/10/18 08:52:10;;;;;;;1.60;1.60;;;;;;;9.08;81.25;94847.44;4345238;32;20185;-63
2023/10/18 08:54:42;;;;;;;2.33;2.23;;;;;;;8.99;81.87;94846.53;4357194;32;20285;-63
2023/10/18 08:57:09;;;;;;;2.13;2.07;;;;;;;8.99;81.40;94843.91;4352437;32;20184;-63
2023/10/18 08:59:42;;;;;;;2.13;2.00;;;;;;;9.09;81.47;94838.41;4333683;32;20193;-64
2023/10/18 09:02:23;;;;;;;1.90;1.80;;;;;;;8.85;82.33;94831.47;4346841;32;20328;-63
2023/10/18 09:04:52;;;;;;;2.27;2.17;;;;;;;8.98;81.94;94834.41;4355750;32;20280;-63
2023/10/18 09:07:22;;;;;;;3.20;3.07;;;;;;;9.11;81.96;94823.81;4335678;32;20211;-63
2023/10/18 09:09:57;;;;;;;2.23;2.13;;;;;;;9.14;80.96;94811.88;4361753;32;20237;-64
2023/10/18 09:15:28;;;;;;;1.70;1.60;;;;;;;9.26;81.46;94820.06;4360889;32;20209;-63
2023/10/18 09:18:08;;;;;;;1.70;1.60;;;;;;;9.29;81.85;94817.63;4347997;32;20245;-63
2023/10/18 09:20:37;;;;;;;3.03;2.77;;;;;;;9.43;81.32;94822.09;4343944;32;20244;-63
2023/10/18 09:23:14;;;;;;;2.70;2.60;;;;;;;9.67;80.47;94821.84;4353414;32;20204;-63
2023/10/18 09:25:48;;;;;;;2.50;2.30;;;;;;;9.45;80.78;94823.34;4360930;32;20193;-63
2023/10/18 09:28:25;;;;;;;3.57;2.33;;;;;;;9.35;81.30;94818.31;4338718;32;20222;-64
2023/10/18 09:31:10;;;;;;;2.30;2.07;;;;;;;9.62;80.79;94809.47;4359405;32;20207;-64
2023/10/18 09:33:38;;;;;;;2.27;2.17;;;;;;;9.61;80.25;94814.00;4346503;32;20197;-63
2023/10/18 09:36:18;;;;;;;2.27;2.13;;;;;;;9.59;80.45;94816.16;4360882;32;20244;-63
2023/10/18 09:38:43;;;;;;;2.33;2.23;;;;;;;9.50;81.47;94815.31;4337014;32;20249;-63
2023/10/18 09:41:09;;;;;;;1.77;1.73;;;;;;;9.56;81.18;94814.09;4341654;32;20190;-62
2023/10/18 09:43:36;;;;;;;2.30;2.20;;;;;;;9.75;80.48;94808.66;4338034;32;20189;-63
2023/10/18 09:46:03;;;;;;;1.57;1.57;;;;;;;9.83;80.70;94799.19;4346739;32;20234;-63
2023/10/18 09:48:32;;;;;;;2.60;2.50;;;;;;;9.86;80.54;94798.59;4359834;32;20226;-63
2023/10/18 09:51:06;;;;;;;1.90;1.80;;;;;;;9.77;81.16;94800.41;4347313;32;20219;-63
2023/10/18 09:53:55;;;;;;;1.97;1.97;;;;;;;9.86;81.30;94799.38;4357842;32;20231;-63
2023/10/18 09:56:33;;;;;;;3.40;2.73;;;;;;;10.02;80.46;94805.09;4345469;32;20240;-62
2023/10/18 09:59:11;;;;;;;2.53;2.43;;;;;;;10.01;80.14;94800.88;4353085;32;20185;-63
2023/10/18 10:04:09;;;;;;;2.30;2.20;;;;;;;10.02;80.76;94791.06;4360128;32;20197;-62
2023/10/18 10:06:35;;;;;;;2.33;2.23;;;;;;;10.07;80.93;94788.31;4346571;32;20189;-63
2023/10/18 10:11:37;;;;;;;3.13;2.93;;;;;;;10.15;80.23;94788.34;4360594;32;20250;-62
2023/10/18 10:14:07;;;;;;;2.97;2.83;;;;;;;10.18;80.09;94795.72;4347293;32;20250;-62
2023/10/18 10:16:34;;;;;;;3.87;3.57;;;;;;;10.23;79.87;94798.25;4346453;32;20236;-62
2023/10/18 10:19:04;;;;;;;3.00;2.83;;;;;;;10.19;79.83;94796.50;4346536;32;20248;-61
2023/10/18 10:21:33;;;;;;;2.77;2.57;;;;;;;10.30;78.91;94790.66;4347232;32;20189;-63
2023/10/18 10:24:06;;;;;;;10.23;2.93;;;;;;;10.25;79.00;94779.37;4336141;32;20177;-63
2023/10/18 10:26:35;;;;;;;2.90;2.77;;;;;;;10.28;79.62;94779.56;4342620;32;20235;-62
2023/10/18 10:31:59;;;;;;;3.50;2.43;;;;;;;10.45;79.71;94778.06;4350663;32;20177;-60
2023/10/18 10:34:32;;;;;;;2.67;2.30;;;;;;;10.50;79.05;94775.28;4346613;32;20234;-60
2023/10/18 10:37:11;;;;;;;2.67;2.50;;;;;;;10.61;79.04;94763.31;4361106;32;20186;-59
2023/10/18 10:39:44;;;;;;;2.60;2.50;;;;;;;10.61;78.62;94758.00;4360410;32;20211;-60
2023/10/18 10:45:38;;;;;;;3.00;2.77;;;;;;;10.78;77.79;94752.78;4346511;32;20215;-60
2023/10/18 10:48:15;;;;;;;3.83;3.33;;;;;;;10.74;78.81;94733.25;4348858;32;20351;-61
2023/10/18 10:50:42;;;;;;;2.03;1.97;;;;;;;10.88;78.27;94738.44;4346548;32;20200;-61
2023/10/18 10:53:11;;;;;;;2.77;2.57;;;;;;;10.97;77.97;94723.31;4343507;32;20219;-61
2023/10/18 10:55:38;;;;;;;2.43;2.27;;;;;;;11.09;77.76;94714.75;4349073;32;20227;-61
2023/10/18 10:58:16;;;;;;;6.40;2.80;;;;;;;11.19;77.32;94709.13;4345935;32;20516;-61
2023/10/18 11:01:04;;;;;;;2.37;2.27;;;;;;;11.17;77.42;94706.00;4346093;32;20215;-61
2023/10/18 11:03:30;;;;;;;2.17;2.07;;;;;;;11.25;76.76;94706.00;4344940;32;20248;-60
2023/10/18 11:05:58;;;;;;;6.23;2.63;;;;;;;11.23;77.36;94697.56;4346025;32;20193;-61
2023/10/18 11:08:25;;;;;;;1.90;1.80;;;;;;;11.22;77.62;94703.22;4346032;32;20250;-61
2023/10/18 11:10:50;;;;;;;2.97;2.80;;;;;;;11.27;77.35;94695.06;4337386;32;20211;-61
2023/10/18 11:13:22;;;;;;;1.83;1.73;;;;;;;11.34;77.40;94684.75;4350085;32;20212;-61
2023/10/18 11:15:49;;;;;;;1.93;1.83;;;;;;;11.49;77.18;94684.28;4360689;32;20254;-61
2023/10/18 11:18:34;;;;;;;1.97;1.87;;;;;;;11.52;77.76;94665.06;4360097;32;20195;-61
2023/10/18 11:21:18;;;;;;;2.00;1.90;;;;;;;11.59;77.36;94657.41;4345300;32;20186;-60
2023/10/18 11:23:49;;;;;;;2.00;1.90;;;;;;;11.75;76.85;94651.56;4346549;32;20203;-61
2023/10/18 11:26:19;;;;;;;2.10;1.97;;;;;;;11.84;76.61;94645.19;4347109;32;20193;-61
2023/10/18 11:28:46;;;;;;;1.93;1.83;;;;;;;11.86;76.43;94639.53;4346614;32;20193;-61
2023/10/18 11:31:12;;;;;;;2.07;1.83;;;;;;;11.95;75.66;94629.66;4336090;32;20195;-61
2023/10/18 11:36:21;;;;;;;2.03;1.93;;;;;;;12.05;75.62;94629.31;4349506;32;20219;-61
2023/10/18 11:41:36;;;;;;;1.07;1.07;;;;;;;12.15;75.71;94622.84;4358815;32;20228;-61
2023/10/18 11:44:06;;;;;;;2.03;1.93;;;;;;;12.27;75.27;94612.31;4346027;32;20244;-61
2023/10/18 11:46:56;;;;;;;1.67;1.67;;;;;;;12.30;74.59;94601.81;4346382;32;20185;-61
2023/10/18 11:49:32;;;;;;;2.23;2.07;;;;;;;12.32;74.75;94599.59;4349720;32;20206;-61
2023/10/18 11:51:57;;;;;;;2.00;1.90;;;;;;;12.34;73.96;94592.09;4349094;32;20249;-62
2023/10/18 11:54:28;;;;;;;2.07;1.97;;;;;;;12.32;74.17;94596.16;4361795;32;20193;-62
2023/10/18 11:56:53;;;;;;;2.00;1.90;;;;;;;12.44;74.11;94595.50;4362650;32;20203;-62
2023/10/18 11:59:22;;;;;;;3.60;2.43;;;;;;;12.49;74.38;94595.28;4354133;32;20215;-62
2023/10/18 12:01:54;;;;;;;1.87;1.77;;;;;;;12.51;73.36;94595.75;4347647;32;20205;-61
2023/10/18 12:04:27;;;;;;;2.00;1.90;;;;;;;12.59;73.42;94592.25;4347932;32;21439;-61
2023/10/18 12:06:52;;;;;;;2.17;2.07;;;;;;;12.63;72.96;94588.63;4349098;32;20192;-61
2023/10/18 12:11:43;;;;;;;1.33;1.33;;;;;;;12.70;72.70;94582.78;4348857;32;20219;-62
2023/10/18 12:14:08;;;;;;;1.10;1.10;;;;;;;12.82;72.42;94576.75;4348048;32;20189;-62
2023/10/18 12:16:34;;;;;;;2.00;1.90;;;;;;;12.93;71.99;94564.59;4363020;32;20193;-62
2023/10/18 12:19:00;;;;;;;1.90;1.80;;;;;;;13.08;71.05;94564.78;4348993;32;20185;-61
2023/10/18 12:21:29;;;;;;;0.90;0.90;;;;;;;13.15;70.52;94552.81;4364237;32;20185;-61
2023/10/18 12:23:55;;;;;;;1.50;1.50;;;;;;;13.20;70.47;94564.06;4338872;32;20200;-61
2023/10/18 12:26:24;;;;;;;1.77;1.67;;;;;;;13.25;70.22;94565.75;4348082;32;20248;-62
2023/10/18 12:28:55;;;;;;;1.83;1.73;;;;;;;13.28;70.20;94565.87;4348602;32;20268;-61
2023/10/18 12:31:26;;;;;;;1.80;1.70;;;;;;;13.35;69.92;94560.00;4342069;32;20276;-61
2023/10/18 12:33:57;;;;;;;0.77;0.77;;;;;;;13.48;68.73;94556.28;4334459;32;20243;-62
2023/10/18 12:36:23;;;;;;;1.27;1.27;;;;;;;13.58;68.44;94550.50;4347306;32;20203;-61
2023/10/18 12:38:49;;;;;;;1.67;1.60;;;;;;;13.62;68.68;94540.75;4348853;32;20252;-62
2023/10/18 12:43:44;;;;;;;0.70;0.70;;;;;;;13.80;67.75;94537.88;4356162;32;20261;-63
2023/10/18 12:46:11;;;;;;;1.10;1.10;;;;;;;13.95;66.86;94527.31;4358586;32;20189;-62
2023/10/18 12:48:37;;;;;;;1.73;1.73;;;;;;;13.90;67.68;94532.12;4348503;32;20200;-62